sensor_id;sensor_type;location;lat;lon;timestamp;P1;durP1;ratioP1;P2;durP2;ratioP2
9256;SDS011;4665;51.368;6.782;2023-12-20T00:00:53;9.87;;;5.10;;
9256;SDS011;4665;51.368;6.782;2023-12-20T00:03:18;11.80;;;5.43;;
9256;SDS011;4665;51.368;6.782;2023-12-20T00:05:43;7.30;;;5.20;;
9256;SDS011;4665;51.368;6.782;2023-12-20T00:08:09;10.60;;;5.30;;
9256;SDS011;4665;51.368;6.782;2023-12-20T00:10:34;11.30;;;5.07;;
9256;SDS011;4665;51.368;6.782;2023-12-20T00:12:59;9.13;;;5.73;;
9256;SDS011;4665;51.368;6.782;2023-12-20T00:15:24;11.13;;;5.47;;
9256;SDS011;4665;51.368;6.782;2023-12-20T00:17:50;10.07;;;5.57;;
9256;SDS011;4665;51.368;6.782;2023-12-20T00:20:15;14.93;;;5.90;;
9256;SDS011;4665;51.368;6.782;2023-12-20T00:22:40;9.23;;;5.60;;
9256;SDS011;4665;51.368;6.782;2023-12-20T00:25:06;8.47;;;5.03;;
9256;SDS011;4665;51.368;6.782;2023-12-20T00:27:31;11.40;;;5.50;;
9256;SDS011;4665;51.368;6.782;2023-12-20T00:29:57;7.60;;;5.23;;
9256;SDS011;4665;51.368;6.782;2023-12-20T00:32:22;9.67;;;5.57;;
9256;SDS011;4665;51.368;6.782;2023-12-20T00:34:47;9.97;;;6.10;;
9256;SDS011;4665;51.368;6.782;2023-12-20T00:37:12;13.30;;;5.83;;
9256;SDS011;4665;51.368;6.782;2023-12-20T00:39:38;9.63;;;5.03;;
9256;SDS011;4665;51.368;6.782;2023-12-20T00:42:03;7.87;;;5.10;;
9256;SDS011;4665;51.368;6.782;2023-12-20T00:44:28;8.20;;;4.63;;
9256;SDS011;4665;51.368;6.782;2023-12-20T00:46:53;8.97;;;5.47;;
9256;SDS011;4665;51.368;6.782;2023-12-20T00:49:18;8.73;;;5.20;;
9256;SDS011;4665;51.368;6.782;2023-12-20T00:51:44;11.93;;;5.40;;
9256;SDS011;4665;51.368;6.782;2023-12-20T00:54:09;8.30;;;5.27;;
9256;SDS011;4665;51.368;6.782;2023-12-20T00:56:34;11.53;;;5.30;;
9256;SDS011;4665;51.368;6.782;2023-12-20T00:59:00;11.43;;;5.67;;
9256;SDS011;4665;51.368;6.782;2023-12-20T01:01:25;10.50;;;6.33;;
9256;SDS011;4665;51.368;6.782;2023-12-20T01:03:50;12.47;;;7.80;;
9256;SDS011;4665;51.368;6.782;2023-12-20T01:06:16;13.70;;;8.60;;
9256;SDS011;4665;51.368;6.782;2023-12-20T01:08:41;11.67;;;7.53;;
9256;SDS011;4665;51.368;6.782;2023-12-20T01:11:07;9.70;;;7.50;;
9256;SDS011;4665;51.368;6.782;2023-12-20T01:13:32;13.70;;;7.13;;
9256;SDS011;4665;51.368;6.782;2023-12-20T01:15:57;12.57;;;7.47;;
9256;SDS011;4665;51.368;6.782;2023-12-20T01:18:22;12.53;;;7.70;;
9256;SDS011;4665;51.368;6.782;2023-12-20T01:20:47;7.63;;;5.83;;
9256;SDS011;4665;51.368;6.782;2023-12-20T01:23:13;8.17;;;5.70;;
9256;SDS011;4665;51.368;6.782;2023-12-20T01:25:38;8.77;;;6.00;;
9256;SDS011;4665;51.368;6.782;2023-12-20T01:28:04;8.63;;;5.13;;
9256;SDS011;4665;51.368;6.782;2023-12-20T01:30:29;9.77;;;6.30;;
9256;SDS011;4665;51.368;6.782;2023-12-20T01:32:54;9.20;;;6.17;;
9256;SDS011;4665;51.368;6.782;2023-12-20T01:35:19;8.83;;;6.40;;
9256;SDS011;4665;51.368;6.782;2023-12-20T01:37:45;9.73;;;6.70;;
9256;SDS011;4665;51.368;6.782;2023-12-20T01:40:10;13.03;;;7.50;;
9256;SDS011;4665;51.368;6.782;2023-12-20T01:42:35;10.20;;;6.90;;
9256;SDS011;4665;51.368;6.782;2023-12-20T01:45:00;7.43;;;6.23;;
9256;SDS011;4665;51.368;6.782;2023-12-20T01:47:26;9.93;;;6.80;;
9256;SDS011;4665;51.368;6.782;2023-12-20T01:49:52;11.07;;;6.73;;
9256;SDS011;4665;51.368;6.782;2023-12-20T01:52:17;9.00;;;5.57;;
9256;SDS011;4665;51.368;6.782;2023-12-20T01:54:42;8.73;;;5.03;;
9256;SDS011;4665;51.368;6.782;2023-12-20T01:57:08;9.80;;;4.53;;
9256;SDS011;4665;51.368;6.782;2023-12-20T01:59:34;8.17;;;4.80;;
9256;SDS011;4665;51.368;6.782;2023-12-20T02:01:59;11.43;;;7.73;;
9256;SDS011;4665;51.368;6.782;2023-12-20T02:04:25;10.27;;;6.30;;
9256;SDS011;4665;51.368;6.782;2023-12-20T02:06:52;11.23;;;6.30;;
9256;SDS011;4665;51.368;6.782;2023-12-20T02:09:17;12.60;;;7.20;;
9256;SDS011;4665;51.368;6.782;2023-12-20T02:11:43;8.93;;;6.10;;
9256;SDS011;4665;51.368;6.782;2023-12-20T02:14:08;10.17;;;5.67;;
9256;SDS011;4665;51.368;6.782;2023-12-20T02:16:33;9.17;;;5.47;;
9256;SDS011;4665;51.368;6.782;2023-12-20T02:18:59;9.93;;;4.67;;
9256;SDS011;4665;51.368;6.782;2023-12-20T02:21:33;7.50;;;4.57;;
9256;SDS011;4665;51.368;6.782;2023-12-20T02:23:59;8.00;;;4.47;;
9256;SDS011;4665;51.368;6.782;2023-12-20T02:26:25;5.80;;;4.17;;
9256;SDS011;4665;51.368;6.782;2023-12-20T02:28:50;7.20;;;4.00;;
9256;SDS011;4665;51.368;6.782;2023-12-20T02:31:15;6.17;;;4.27;;
9256;SDS011;4665;51.368;6.782;2023-12-20T02:33:40;6.87;;;4.30;;
9256;SDS011;4665;51.368;6.782;2023-12-20T02:36:07;5.93;;;4.03;;
9256;SDS011;4665;51.368;6.782;2023-12-20T02:38:32;8.17;;;4.13;;
9256;SDS011;4665;51.368;6.782;2023-12-20T02:40:57;11.63;;;5.43;;
9256;SDS011;4665;51.368;6.782;2023-12-20T02:43:22;5.77;;;4.00;;
9256;SDS011;4665;51.368;6.782;2023-12-20T02:45:48;9.10;;;4.80;;
9256;SDS011;4665;51.368;6.782;2023-12-20T02:48:13;3.83;;;3.53;;
9256;SDS011;4665;51.368;6.782;2023-12-20T02:50:38;6.97;;;3.47;;
9256;SDS011;4665;51.368;6.782;2023-12-20T02:53:03;7.10;;;4.00;;
9256;SDS011;4665;51.368;6.782;2023-12-20T02:55:29;9.57;;;3.97;;
9256;SDS011;4665;51.368;6.782;2023-12-20T02:57:54;5.33;;;2.97;;
9256;SDS011;4665;51.368;6.782;2023-12-20T03:00:19;4.73;;;3.17;;
9256;SDS011;4665;51.368;6.782;2023-12-20T03:02:44;4.57;;;2.77;;
9256;SDS011;4665;51.368;6.782;2023-12-20T03:05:10;7.20;;;3.20;;
9256;SDS011;4665;51.368;6.782;2023-12-20T03:07:36;8.37;;;2.93;;
9256;SDS011;4665;51.368;6.782;2023-12-20T03:10:01;6.13;;;2.90;;
9256;SDS011;4665;51.368;6.782;2023-12-20T03:12:26;5.07;;;2.47;;
9256;SDS011;4665;51.368;6.782;2023-12-20T03:14:52;5.17;;;2.40;;
9256;SDS011;4665;51.368;6.782;2023-12-20T03:17:17;7.37;;;2.47;;
9256;SDS011;4665;51.368;6.782;2023-12-20T03:19:42;8.70;;;2.50;;
9256;SDS011;4665;51.368;6.782;2023-12-20T03:22:07;5.73;;;2.47;;
9256;SDS011;4665;51.368;6.782;2023-12-20T03:24:33;6.40;;;2.37;;
9256;SDS011;4665;51.368;6.782;2023-12-20T03:26:58;3.20;;;2.13;;
9256;SDS011;4665;51.368;6.782;2023-12-20T03:29:23;10.73;;;2.80;;
9256;SDS011;4665;51.368;6.782;2023-12-20T03:31:48;9.13;;;2.63;;
9256;SDS011;4665;51.368;6.782;2023-12-20T03:34:14;5.27;;;2.57;;
9256;SDS011;4665;51.368;6.782;2023-12-20T03:36:39;7.60;;;2.00;;
9256;SDS011;4665;51.368;6.782;2023-12-20T03:39:05;6.00;;;2.47;;
9256;SDS011;4665;51.368;6.782;2023-12-20T03:41:30;5.50;;;2.50;;
9256;SDS011;4665;51.368;6.782;2023-12-20T03:43:55;10.30;;;2.20;;
9256;SDS011;4665;51.368;6.782;2023-12-20T03:46:20;13.03;;;2.20;;
9256;SDS011;4665;51.368;6.782;2023-12-20T03:48:45;3.30;;;2.20;;
9256;SDS011;4665;51.368;6.782;2023-12-20T03:51:11;7.70;;;2.20;;
9256;SDS011;4665;51.368;6.782;2023-12-20T03:53:36;8.57;;;2.27;;
9256;SDS011;4665;51.368;6.782;2023-12-20T03:56:01;6.80;;;2.43;;
9256;SDS011;4665;51.368;6.782;2023-12-20T03:58:27;8.53;;;2.70;;
9256;SDS011;4665;51.368;6.782;2023-12-20T04:00:52;6.67;;;2.20;;
9256;SDS011;4665;51.368;6.782;2023-12-20T04:03:17;8.07;;;2.47;;
9256;SDS011;4665;51.368;6.782;2023-12-20T04:05:42;4.03;;;2.53;;
9256;SDS011;4665;51.368;6.782;2023-12-20T04:08:08;10.53;;;2.67;;
9256;SDS011;4665;51.368;6.782;2023-12-20T04:10:34;5.53;;;2.13;;
9256;SDS011;4665;51.368;6.782;2023-12-20T04:12:59;5.43;;;2.10;;
9256;SDS011;4665;51.368;6.782;2023-12-20T04:15:24;8.53;;;2.77;;
9256;SDS011;4665;51.368;6.782;2023-12-20T04:17:50;5.80;;;2.70;;
9256;SDS011;4665;51.368;6.782;2023-12-20T04:20:15;5.23;;;2.53;;
9256;SDS011;4665;51.368;6.782;2023-12-20T04:22:40;8.10;;;2.60;;
9256;SDS011;4665;51.368;6.782;2023-12-20T04:25:05;6.93;;;2.23;;
9256;SDS011;4665;51.368;6.782;2023-12-20T04:27:31;5.00;;;2.10;;
9256;SDS011;4665;51.368;6.782;2023-12-20T04:29:56;6.57;;;2.33;;
9256;SDS011;4665;51.368;6.782;2023-12-20T04:32:21;5.90;;;2.37;;
9256;SDS011;4665;51.368;6.782;2023-12-20T04:34:46;6.23;;;2.63;;
9256;SDS011;4665;51.368;6.782;2023-12-20T04:37:12;11.27;;;3.20;;
9256;SDS011;4665;51.368;6.782;2023-12-20T04:39:37;7.30;;;2.87;;
9256;SDS011;4665;51.368;6.782;2023-12-20T04:42:02;5.23;;;2.67;;
9256;SDS011;4665;51.368;6.782;2023-12-20T04:44:28;6.10;;;2.50;;
9256;SDS011;4665;51.368;6.782;2023-12-20T04:46:53;4.03;;;3.13;;
9256;SDS011;4665;51.368;6.782;2023-12-20T04:49:18;10.50;;;3.77;;
9256;SDS011;4665;51.368;6.782;2023-12-20T04:51:43;6.17;;;3.27;;
9256;SDS011;4665;51.368;6.782;2023-12-20T04:54:09;9.03;;;3.87;;
9256;SDS011;4665;51.368;6.782;2023-12-20T04:56:35;7.13;;;3.47;;
9256;SDS011;4665;51.368;6.782;2023-12-20T04:59:00;8.37;;;3.77;;
9256;SDS011;4665;51.368;6.782;2023-12-20T05:01:26;8.13;;;3.50;;
9256;SDS011;4665;51.368;6.782;2023-12-20T05:03:51;5.37;;;3.47;;
9256;SDS011;4665;51.368;6.782;2023-12-20T05:06:16;10.80;;;3.57;;
9256;SDS011;4665;51.368;6.782;2023-12-20T05:08:41;11.90;;;4.13;;
9256;SDS011;4665;51.368;6.782;2023-12-20T05:11:06;5.73;;;3.77;;
9256;SDS011;4665;51.368;6.782;2023-12-20T05:13:32;4.77;;;3.33;;
9256;SDS011;4665;51.368;6.782;2023-12-20T05:15:57;9.57;;;4.13;;
9256;SDS011;4665;51.368;6.782;2023-12-20T05:18:22;8.57;;;3.30;;
9256;SDS011;4665;51.368;6.782;2023-12-20T05:20:48;7.60;;;3.40;;
9256;SDS011;4665;51.368;6.782;2023-12-20T05:23:13;6.53;;;3.63;;
9256;SDS011;4665;51.368;6.782;2023-12-20T05:25:39;10.43;;;3.97;;
9256;SDS011;4665;51.368;6.782;2023-12-20T05:28:04;8.77;;;4.20;;
9256;SDS011;4665;51.368;6.782;2023-12-20T05:30:29;8.27;;;4.13;;
9256;SDS011;4665;51.368;6.782;2023-12-20T05:32:54;6.87;;;3.53;;
9256;SDS011;4665;51.368;6.782;2023-12-20T05:35:20;7.07;;;3.60;;
9256;SDS011;4665;51.368;6.782;2023-12-20T05:37:47;5.80;;;3.43;;
9256;SDS011;4665;51.368;6.782;2023-12-20T05:40:12;7.27;;;3.30;;
9256;SDS011;4665;51.368;6.782;2023-12-20T05:42:37;8.93;;;4.17;;
9256;SDS011;4665;51.368;6.782;2023-12-20T05:45:03;5.80;;;3.33;;
9256;SDS011;4665;51.368;6.782;2023-12-20T05:47:29;11.73;;;4.27;;
9256;SDS011;4665;51.368;6.782;2023-12-20T05:49:54;6.87;;;3.50;;
9256;SDS011;4665;51.368;6.782;2023-12-20T05:52:19;6.03;;;3.33;;
9256;SDS011;4665;51.368;6.782;2023-12-20T05:54:44;15.93;;;4.47;;
9256;SDS011;4665;51.368;6.782;2023-12-20T05:57:10;6.00;;;3.70;;
9256;SDS011;4665;51.368;6.782;2023-12-20T05:59:35;8.60;;;4.07;;
9256;SDS011;4665;51.368;6.782;2023-12-20T06:02:00;7.63;;;3.90;;
9256;SDS011;4665;51.368;6.782;2023-12-20T06:04:25;9.43;;;3.93;;
9256;SDS011;4665;51.368;6.782;2023-12-20T06:06:50;12.37;;;3.93;;
9256;SDS011;4665;51.368;6.782;2023-12-20T06:09:16;8.17;;;3.93;;
9256;SDS011;4665;51.368;6.782;2023-12-20T06:11:41;8.60;;;3.60;;
9256;SDS011;4665;51.368;6.782;2023-12-20T06:14:06;9.03;;;3.73;;
9256;SDS011;4665;51.368;6.782;2023-12-20T06:16:31;5.63;;;3.57;;
9256;SDS011;4665;51.368;6.782;2023-12-20T06:18:56;6.70;;;3.30;;
9256;SDS011;4665;51.368;6.782;2023-12-20T06:21:22;7.30;;;3.73;;
9256;SDS011;4665;51.368;6.782;2023-12-20T06:23:47;6.77;;;4.00;;
9256;SDS011;4665;51.368;6.782;2023-12-20T06:26:12;10.93;;;4.07;;
9256;SDS011;4665;51.368;6.782;2023-12-20T06:28:37;11.60;;;4.23;;
9256;SDS011;4665;51.368;6.782;2023-12-20T06:31:03;9.73;;;3.90;;
9256;SDS011;4665;51.368;6.782;2023-12-20T06:33:28;7.03;;;3.80;;
9256;SDS011;4665;51.368;6.782;2023-12-20T06:35:56;11.07;;;4.37;;
9256;SDS011;4665;51.368;6.782;2023-12-20T06:38:21;8.07;;;3.63;;
9256;SDS011;4665;51.368;6.782;2023-12-20T06:40:46;10.90;;;3.50;;
9256;SDS011;4665;51.368;6.782;2023-12-20T06:43:12;8.70;;;4.37;;
9256;SDS011;4665;51.368;6.782;2023-12-20T06:45:38;7.40;;;3.33;;
9256;SDS011;4665;51.368;6.782;2023-12-20T06:48:03;6.67;;;3.57;;
9256;SDS011;4665;51.368;6.782;2023-12-20T06:50:29;10.30;;;4.00;;
9256;SDS011;4665;51.368;6.782;2023-12-20T06:52:54;7.30;;;3.87;;
9256;SDS011;4665;51.368;6.782;2023-12-20T06:55:19;7.67;;;4.17;;
9256;SDS011;4665;51.368;6.782;2023-12-20T06:57:44;7.27;;;4.10;;
9256;SDS011;4665;51.368;6.782;2023-12-20T07:00:10;5.60;;;3.33;;
9256;SDS011;4665;51.368;6.782;2023-12-20T07:02:36;8.63;;;3.40;;
9256;SDS011;4665;51.368;6.782;2023-12-20T07:05:01;13.83;;;3.80;;
9256;SDS011;4665;51.368;6.782;2023-12-20T07:07:26;10.07;;;4.00;;
9256;SDS011;4665;51.368;6.782;2023-12-20T07:09:52;10.50;;;3.93;;
9256;SDS011;4665;51.368;6.782;2023-12-20T07:12:17;9.50;;;4.00;;
9256;SDS011;4665;51.368;6.782;2023-12-20T07:14:44;7.90;;;3.50;;
9256;SDS011;4665;51.368;6.782;2023-12-20T07:17:09;8.63;;;3.83;;
9256;SDS011;4665;51.368;6.782;2023-12-20T07:19:37;10.70;;;4.83;;
9256;SDS011;4665;51.368;6.782;2023-12-20T07:22:02;11.57;;;3.60;;
9256;SDS011;4665;51.368;6.782;2023-12-20T07:24:27;11.97;;;4.47;;
9256;SDS011;4665;51.368;6.782;2023-12-20T07:26:53;8.97;;;4.10;;
9256;SDS011;4665;51.368;6.782;2023-12-20T07:29:18;9.70;;;3.70;;
9256;SDS011;4665;51.368;6.782;2023-12-20T07:31:43;13.03;;;3.67;;
9256;SDS011;4665;51.368;6.782;2023-12-20T07:34:08;9.33;;;4.07;;
9256;SDS011;4665;51.368;6.782;2023-12-20T07:36:33;9.87;;;3.60;;
9256;SDS011;4665;51.368;6.782;2023-12-20T07:38:59;8.63;;;3.70;;
9256;SDS011;4665;51.368;6.782;2023-12-20T07:41:24;6.90;;;3.30;;
9256;SDS011;4665;51.368;6.782;2023-12-20T07:43:49;10.53;;;3.97;;
9256;SDS011;4665;51.368;6.782;2023-12-20T07:46:14;6.43;;;3.00;;
9256;SDS011;4665;51.368;6.782;2023-12-20T07:48:39;10.70;;;3.73;;
9256;SDS011;4665;51.368;6.782;2023-12-20T07:51:06;6.73;;;3.67;;
9256;SDS011;4665;51.368;6.782;2023-12-20T07:53:33;8.43;;;3.37;;
9256;SDS011;4665;51.368;6.782;2023-12-20T07:55:58;5.63;;;3.57;;
9256;SDS011;4665;51.368;6.782;2023-12-20T07:58:23;7.70;;;4.00;;
9256;SDS011;4665;51.368;6.782;2023-12-20T08:00:48;9.03;;;3.90;;
9256;SDS011;4665;51.368;6.782;2023-12-20T08:03:14;10.23;;;3.83;;
9256;SDS011;4665;51.368;6.782;2023-12-20T08:05:39;10.33;;;4.20;;
9256;SDS011;4665;51.368;6.782;2023-12-20T08:08:07;11.73;;;4.23;;
9256;SDS011;4665;51.368;6.782;2023-12-20T08:10:33;6.50;;;3.83;;
9256;SDS011;4665;51.368;6.782;2023-12-20T08:12:58;9.20;;;4.80;;
9256;SDS011;4665;51.368;6.782;2023-12-20T08:15:23;8.00;;;4.33;;
9256;SDS011;4665;51.368;6.782;2023-12-20T08:17:48;8.33;;;3.77;;
9256;SDS011;4665;51.368;6.782;2023-12-20T08:20:15;10.33;;;4.53;;
9256;SDS011;4665;51.368;6.782;2023-12-20T08:22:41;4.80;;;3.50;;
9256;SDS011;4665;51.368;6.782;2023-12-20T08:25:06;8.13;;;3.97;;
9256;SDS011;4665;51.368;6.782;2023-12-20T08:27:31;12.23;;;4.67;;
9256;SDS011;4665;51.368;6.782;2023-12-20T08:29:57;6.63;;;3.70;;
9256;SDS011;4665;51.368;6.782;2023-12-20T08:32:24;12.07;;;4.93;;
9256;SDS011;4665;51.368;6.782;2023-12-20T08:34:49;11.70;;;4.40;;
9256;SDS011;4665;51.368;6.782;2023-12-20T08:37:15;9.30;;;4.03;;
9256;SDS011;4665;51.368;6.782;2023-12-20T08:39:40;11.40;;;4.27;;
9256;SDS011;4665;51.368;6.782;2023-12-20T08:42:06;7.77;;;3.70;;
9256;SDS011;4665;51.368;6.782;2023-12-20T08:44:31;8.13;;;3.87;;
9256;SDS011;4665;51.368;6.782;2023-12-20T08:46:56;8.43;;;3.67;;
9256;SDS011;4665;51.368;6.782;2023-12-20T08:49:22;7.10;;;2.77;;
9256;SDS011;4665;51.368;6.782;2023-12-20T08:51:47;11.10;;;3.43;;
9256;SDS011;4665;51.368;6.782;2023-12-20T08:54:12;5.13;;;3.07;;
9256;SDS011;4665;51.368;6.782;2023-12-20T08:56:38;7.47;;;2.97;;
9256;SDS011;4665;51.368;6.782;2023-12-20T08:59:03;8.17;;;3.60;;
9256;SDS011;4665;51.368;6.782;2023-12-20T09:01:28;8.37;;;3.53;;
9256;SDS011;4665;51.368;6.782;2023-12-20T09:03:54;8.17;;;2.73;;
9256;SDS011;4665;51.368;6.782;2023-12-20T09:06:19;7.23;;;2.80;;
9256;SDS011;4665;51.368;6.782;2023-12-20T09:08:44;4.03;;;3.00;;
9256;SDS011;4665;51.368;6.782;2023-12-20T09:11:09;4.57;;;2.27;;
9256;SDS011;4665;51.368;6.782;2023-12-20T09:13:35;9.37;;;3.17;;
9256;SDS011;4665;51.368;6.782;2023-12-20T09:16:00;9.87;;;2.97;;
9256;SDS011;4665;51.368;6.782;2023-12-20T09:18:25;9.13;;;2.87;;
9256;SDS011;4665;51.368;6.782;2023-12-20T09:20:51;11.47;;;3.63;;
9256;SDS011;4665;51.368;6.782;2023-12-20T09:23:16;6.47;;;2.30;;
9256;SDS011;4665;51.368;6.782;2023-12-20T09:25:43;9.37;;;3.23;;
9256;SDS011;4665;51.368;6.782;2023-12-20T09:28:08;10.03;;;3.30;;
9256;SDS011;4665;51.368;6.782;2023-12-20T09:30:33;6.43;;;2.43;;
9256;SDS011;4665;51.368;6.782;2023-12-20T09:33:00;5.53;;;2.90;;
9256;SDS011;4665;51.368;6.782;2023-12-20T09:35:25;6.57;;;2.43;;
9256;SDS011;4665;51.368;6.782;2023-12-20T09:37:51;5.40;;;2.67;;
9256;SDS011;4665;51.368;6.782;2023-12-20T09:40:18;5.73;;;2.50;;
9256;SDS011;4665;51.368;6.782;2023-12-20T09:42:48;11.30;;;2.97;;
9256;SDS011;4665;51.368;6.782;2023-12-20T09:45:16;7.77;;;3.23;;
9256;SDS011;4665;51.368;6.782;2023-12-20T09:47:44;10.60;;;3.10;;
9256;SDS011;4665;51.368;6.782;2023-12-20T09:50:10;9.43;;;2.80;;
9256;SDS011;4665;51.368;6.782;2023-12-20T09:52:36;5.30;;;2.70;;
9256;SDS011;4665;51.368;6.782;2023-12-20T09:55:02;10.47;;;3.43;;
9256;SDS011;4665;51.368;6.782;2023-12-20T09:57:30;7.60;;;2.83;;
9256;SDS011;4665;51.368;6.782;2023-12-20T09:59:56;10.97;;;3.33;;
9256;SDS011;4665;51.368;6.782;2023-12-20T10:02:21;10.40;;;2.73;;
9256;SDS011;4665;51.368;6.782;2023-12-20T10:04:49;7.33;;;3.03;;
9256;SDS011;4665;51.368;6.782;2023-12-20T10:07:15;8.33;;;2.70;;
9256;SDS011;4665;51.368;6.782;2023-12-20T10:09:40;8.30;;;2.67;;
9256;SDS011;4665;51.368;6.782;2023-12-20T10:12:05;6.80;;;2.77;;
9256;SDS011;4665;51.368;6.782;2023-12-20T10:14:32;4.23;;;2.63;;
9256;SDS011;4665;51.368;6.782;2023-12-20T10:17:03;5.37;;;2.67;;
9256;SDS011;4665;51.368;6.782;2023-12-20T10:19:29;10.20;;;3.57;;
9256;SDS011;4665;51.368;6.782;2023-12-20T10:21:54;7.13;;;3.37;;
9256;SDS011;4665;51.368;6.782;2023-12-20T10:24:19;9.13;;;3.13;;
9256;SDS011;4665;51.368;6.782;2023-12-20T10:26:45;8.90;;;3.83;;
9256;SDS011;4665;51.368;6.782;2023-12-20T10:29:10;13.20;;;3.43;;
9256;SDS011;4665;51.368;6.782;2023-12-20T10:31:36;8.77;;;3.13;;
9256;SDS011;4665;51.368;6.782;2023-12-20T10:34:02;5.03;;;2.50;;
9256;SDS011;4665;51.368;6.782;2023-12-20T10:36:31;11.43;;;3.20;;
9256;SDS011;4665;51.368;6.782;2023-12-20T10:38:57;13.03;;;3.10;;
9256;SDS011;4665;51.368;6.782;2023-12-20T10:41:26;8.57;;;3.33;;
9256;SDS011;4665;51.368;6.782;2023-12-20T10:43:53;6.13;;;2.83;;
9256;SDS011;4665;51.368;6.782;2023-12-20T10:46:19;8.90;;;3.00;;
9256;SDS011;4665;51.368;6.782;2023-12-20T10:48:45;8.50;;;2.97;;
9256;SDS011;4665;51.368;6.782;2023-12-20T10:51:11;6.67;;;3.23;;
9256;SDS011;4665;51.368;6.782;2023-12-20T10:53:36;4.83;;;2.80;;
9256;SDS011;4665;51.368;6.782;2023-12-20T10:56:01;3.80;;;2.67;;
9256;SDS011;4665;51.368;6.782;2023-12-20T10:58:27;7.43;;;3.00;;
9256;SDS011;4665;51.368;6.782;2023-12-20T11:00:59;8.47;;;2.77;;
9256;SDS011;4665;51.368;6.782;2023-12-20T11:03:24;13.10;;;2.80;;
9256;SDS011;4665;51.368;6.782;2023-12-20T11:10:54;5.70;;;2.87;;
9256;SDS011;4665;51.368;6.782;2023-12-20T11:13:40;7.40;;;2.97;;
9256;SDS011;4665;51.368;6.782;2023-12-20T11:16:09;9.60;;;3.10;;
9256;SDS011;4665;51.368;6.782;2023-12-20T11:18:34;6.40;;;3.00;;
9256;SDS011;4665;51.368;6.782;2023-12-20T11:21:00;8.40;;;3.07;;
9256;SDS011;4665;51.368;6.782;2023-12-20T11:23:26;7.50;;;2.90;;
9256;SDS011;4665;51.368;6.782;2023-12-20T11:25:52;11.97;;;3.27;;
9256;SDS011;4665;51.368;6.782;2023-12-20T11:28:21;6.73;;;3.17;;
9256;SDS011;4665;51.368;6.782;2023-12-20T11:30:48;7.87;;;2.80;;
9256;SDS011;4665;51.368;6.782;2023-12-20T11:33:14;6.60;;;3.07;;
9256;SDS011;4665;51.368;6.782;2023-12-20T11:35:40;6.03;;;2.67;;
9256;SDS011;4665;51.368;6.782;2023-12-20T11:38:09;6.17;;;3.10;;
9256;SDS011;4665;51.368;6.782;2023-12-20T11:40:35;5.80;;;2.63;;
9256;SDS011;4665;51.368;6.782;2023-12-20T11:43:00;8.23;;;2.73;;
9256;SDS011;4665;51.368;6.782;2023-12-20T11:45:26;8.53;;;3.00;;
9256;SDS011;4665;51.368;6.782;2023-12-20T11:47:52;7.47;;;3.07;;
9256;SDS011;4665;51.368;6.782;2023-12-20T11:50:20;8.27;;;3.27;;
9256;SDS011;4665;51.368;6.782;2023-12-20T11:52:46;8.33;;;3.20;;
9256;SDS011;4665;51.368;6.782;2023-12-20T11:55:12;9.00;;;3.40;;
9256;SDS011;4665;51.368;6.782;2023-12-20T11:57:37;6.67;;;3.23;;
9256;SDS011;4665;51.368;6.782;2023-12-20T12:00:03;5.83;;;2.93;;
9256;SDS011;4665;51.368;6.782;2023-12-20T12:02:28;8.40;;;3.40;;
9256;SDS011;4665;51.368;6.782;2023-12-20T12:04:54;8.57;;;3.33;;
9256;SDS011;4665;51.368;6.782;2023-12-20T12:07:20;6.07;;;3.10;;
9256;SDS011;4665;51.368;6.782;2023-12-20T12:09:45;6.83;;;3.20;;
9256;SDS011;4665;51.368;6.782;2023-12-20T12:12:11;6.43;;;2.90;;
9256;SDS011;4665;51.368;6.782;2023-12-20T12:14:37;4.93;;;3.20;;
9256;SDS011;4665;51.368;6.782;2023-12-20T12:17:03;4.90;;;2.70;;
9256;SDS011;4665;51.368;6.782;2023-12-20T12:19:29;4.97;;;3.20;;
9256;SDS011;4665;51.368;6.782;2023-12-20T12:22:04;8.07;;;3.13;;
9256;SDS011;4665;51.368;6.782;2023-12-20T12:24:31;8.93;;;3.00;;
9256;SDS011;4665;51.368;6.782;2023-12-20T12:26:57;4.93;;;2.70;;
9256;SDS011;4665;51.368;6.782;2023-12-20T12:29:22;7.40;;;2.90;;
9256;SDS011;4665;51.368;6.782;2023-12-20T12:31:49;5.90;;;3.17;;
9256;SDS011;4665;51.368;6.782;2023-12-20T12:34:14;8.53;;;3.20;;
9256;SDS011;4665;51.368;6.782;2023-12-20T12:36:41;6.90;;;3.37;;
9256;SDS011;4665;51.368;6.782;2023-12-20T12:39:06;5.53;;;2.97;;
9256;SDS011;4665;51.368;6.782;2023-12-20T12:41:31;9.17;;;3.33;;
9256;SDS011;4665;51.368;6.782;2023-12-20T12:43:57;10.27;;;3.93;;
9256;SDS011;4665;51.368;6.782;2023-12-20T12:46:22;7.90;;;3.77;;
9256;SDS011;4665;51.368;6.782;2023-12-20T12:48:47;8.30;;;3.07;;
9256;SDS011;4665;51.368;6.782;2023-12-20T12:51:12;5.13;;;3.20;;
9256;SDS011;4665;51.368;6.782;2023-12-20T12:53:38;4.03;;;3.07;;
9256;SDS011;4665;51.368;6.782;2023-12-20T12:56:04;6.53;;;3.20;;
9256;SDS011;4665;51.368;6.782;2023-12-20T12:58:29;3.50;;;2.63;;
9256;SDS011;4665;51.368;6.782;2023-12-20T13:00:54;6.70;;;3.40;;
9256;SDS011;4665;51.368;6.782;2023-12-20T13:03:20;10.13;;;3.20;;
9256;SDS011;4665;51.368;6.782;2023-12-20T13:05:46;9.50;;;3.47;;
9256;SDS011;4665;51.368;6.782;2023-12-20T13:08:13;12.63;;;3.70;;
9256;SDS011;4665;51.368;6.782;2023-12-20T13:10:38;4.77;;;3.10;;
9256;SDS011;4665;51.368;6.782;2023-12-20T13:13:03;5.37;;;2.97;;
9256;SDS011;4665;51.368;6.782;2023-12-20T13:15:29;6.97;;;3.37;;
9256;SDS011;4665;51.368;6.782;2023-12-20T13:17:55;8.67;;;3.73;;
9256;SDS011;4665;51.368;6.782;2023-12-20T13:20:20;4.90;;;3.27;;
9256;SDS011;4665;51.368;6.782;2023-12-20T13:22:47;7.07;;;3.17;;
9256;SDS011;4665;51.368;6.782;2023-12-20T13:25:12;7.60;;;3.90;;
9256;SDS011;4665;51.368;6.782;2023-12-20T13:27:38;9.63;;;3.77;;
9256;SDS011;4665;51.368;6.782;2023-12-20T13:30:03;5.70;;;3.33;;
9256;SDS011;4665;51.368;6.782;2023-12-20T13:32:28;11.63;;;3.97;;
9256;SDS011;4665;51.368;6.782;2023-12-20T13:34:54;8.93;;;3.67;;
9256;SDS011;4665;51.368;6.782;2023-12-20T13:37:19;6.93;;;3.93;;
9256;SDS011;4665;51.368;6.782;2023-12-20T13:39:44;8.57;;;4.03;;
9256;SDS011;4665;51.368;6.782;2023-12-20T13:42:10;6.73;;;3.67;;
9256;SDS011;4665;51.368;6.782;2023-12-20T13:44:35;8.90;;;3.67;;
9256;SDS011;4665;51.368;6.782;2023-12-20T13:47:00;9.30;;;4.60;;
9256;SDS011;4665;51.368;6.782;2023-12-20T13:49:26;7.30;;;3.93;;
9256;SDS011;4665;51.368;6.782;2023-12-20T13:51:53;9.73;;;4.83;;
9256;SDS011;4665;51.368;6.782;2023-12-20T13:54:19;5.33;;;3.80;;
9256;SDS011;4665;51.368;6.782;2023-12-20T13:56:46;8.17;;;4.50;;
9256;SDS011;4665;51.368;6.782;2023-12-20T13:59:11;10.70;;;4.53;;
9256;SDS011;4665;51.368;6.782;2023-12-20T14:01:38;9.67;;;4.10;;
9256;SDS011;4665;51.368;6.782;2023-12-20T14:04:03;8.77;;;4.27;;
9256;SDS011;4665;51.368;6.782;2023-12-20T14:06:28;8.23;;;4.23;;
9256;SDS011;4665;51.368;6.782;2023-12-20T14:08:54;12.10;;;4.40;;
9256;SDS011;4665;51.368;6.782;2023-12-20T14:11:19;8.17;;;5.17;;
9256;SDS011;4665;51.368;6.782;2023-12-20T14:13:45;7.50;;;4.57;;
9256;SDS011;4665;51.368;6.782;2023-12-20T14:16:10;8.80;;;4.37;;
9256;SDS011;4665;51.368;6.782;2023-12-20T14:18:35;8.50;;;4.60;;
9256;SDS011;4665;51.368;6.782;2023-12-20T14:21:01;7.40;;;4.50;;
9256;SDS011;4665;51.368;6.782;2023-12-20T14:23:26;6.40;;;4.37;;
9256;SDS011;4665;51.368;6.782;2023-12-20T14:25:52;9.00;;;4.80;;
9256;SDS011;4665;51.368;6.782;2023-12-20T14:28:17;7.83;;;4.63;;
9256;SDS011;4665;51.368;6.782;2023-12-20T14:30:43;8.50;;;4.77;;
9256;SDS011;4665;51.368;6.782;2023-12-20T14:33:08;8.60;;;4.33;;
9256;SDS011;4665;51.368;6.782;2023-12-20T14:35:33;8.13;;;4.60;;
9256;SDS011;4665;51.368;6.782;2023-12-20T14:37:58;8.80;;;4.33;;
9256;SDS011;4665;51.368;6.782;2023-12-20T14:40:24;6.10;;;4.43;;
9256;SDS011;4665;51.368;6.782;2023-12-20T14:42:49;9.97;;;5.13;;
9256;SDS011;4665;51.368;6.782;2023-12-20T14:45:15;5.50;;;4.20;;
9256;SDS011;4665;51.368;6.782;2023-12-20T14:47:43;9.17;;;4.07;;
9256;SDS011;4665;51.368;6.782;2023-12-20T14:50:09;10.10;;;4.23;;
9256;SDS011;4665;51.368;6.782;2023-12-20T14:52:34;7.47;;;4.20;;
9256;SDS011;4665;51.368;6.782;2023-12-20T14:55:00;10.87;;;4.50;;
9256;SDS011;4665;51.368;6.782;2023-12-20T14:57:26;7.87;;;4.07;;
9256;SDS011;4665;51.368;6.782;2023-12-20T14:59:51;7.93;;;4.33;;
9256;SDS011;4665;51.368;6.782;2023-12-20T15:02:17;8.40;;;4.37;;
9256;SDS011;4665;51.368;6.782;2023-12-20T15:04:42;9.90;;;4.43;;
9256;SDS011;4665;51.368;6.782;2023-12-20T15:07:08;9.57;;;4.90;;